sensor_id;sensor_type;location;lat;lon;timestamp;P1;durP1;ratioP1;P2;durP2;ratioP2
13173;SDS011;6652;48.802;9.190;2023-04-03T00:00:38;3.15;;;2.30;;
13173;SDS011;6652;48.802;9.190;2023-04-03T00:03:05;4.50;;;2.25;;
13173;SDS011;6652;48.802;9.190;2023-04-03T00:05:31;6.68;;;2.92;;
13173;SDS011;6652;48.802;9.190;2023-04-03T00:07:58;3.85;;;2.55;;
13173;SDS011;6652;48.802;9.190;2023-04-03T00:10:26;5.97;;;2.75;;
13173;SDS011;6652;48.802;9.190;2023-04-03T00:12:54;5.43;;;2.70;;
13173;SDS011;6652;48.802;9.190;2023-04-03T00:15:21;3.63;;;2.50;;
13173;SDS011;6652;48.802;9.190;2023-04-03T00:17:49;5.88;;;2.90;;
13173;SDS011;6652;48.802;9.190;2023-04-03T00:20:16;7.43;;;2.58;;
13173;SDS011;6652;48.802;9.190;2023-04-03T00:22:43;7.78;;;3.20;;
13173;SDS011;6652;48.802;9.190;2023-04-03T00:25:10;5.45;;;2.70;;
13173;SDS011;6652;48.802;9.190;2023-04-03T00:27:37;4.65;;;2.85;;
13173;SDS011;6652;48.802;9.190;2023-04-03T00:30:05;10.18;;;3.35;;
13173;SDS011;6652;48.802;9.190;2023-04-03T00:32:33;12.77;;;3.42;;
13173;SDS011;6652;48.802;9.190;2023-04-03T00:35:01;11.80;;;3.53;;
13173;SDS011;6652;48.802;9.190;2023-04-03T00:37:28;5.57;;;2.70;;
13173;SDS011;6652;48.802;9.190;2023-04-03T00:39:55;4.10;;;2.70;;
13173;SDS011;6652;48.802;9.190;2023-04-03T00:42:22;4.88;;;2.60;;
13173;SDS011;6652;48.802;9.190;2023-04-03T00:47:58;5.30;;;2.47;;
13173;SDS011;6652;48.802;9.190;2023-04-03T00:50:29;4.18;;;2.70;;
13173;SDS011;6652;48.802;9.190;2023-04-03T00:52:56;5.63;;;2.85;;
13173;SDS011;6652;48.802;9.190;2023-04-03T00:55:24;5.03;;;2.88;;
13173;SDS011;6652;48.802;9.190;2023-04-03T00:57:51;4.72;;;2.67;;
13173;SDS011;6652;48.802;9.190;2023-04-03T01:00:20;4.43;;;2.70;;
13173;SDS011;6652;48.802;9.190;2023-04-03T01:02:48;4.57;;;2.53;;
13173;SDS011;6652;48.802;9.190;2023-04-03T01:05:16;6.28;;;2.78;;
13173;SDS011;6652;48.802;9.190;2023-04-03T01:07:45;5.28;;;2.70;;
13173;SDS011;6652;48.802;9.190;2023-04-03T01:10:13;6.20;;;2.42;;
13173;SDS011;6652;48.802;9.190;2023-04-03T01:12:43;5.05;;;2.63;;
13173;SDS011;6652;48.802;9.190;2023-04-03T01:15:13;8.98;;;2.92;;
13173;SDS011;6652;48.802;9.190;2023-04-03T01:17:42;6.75;;;2.97;;
13173;SDS011;6652;48.802;9.190;2023-04-03T01:20:23;7.45;;;3.10;;
13173;SDS011;6652;48.802;9.190;2023-04-03T01:23:12;4.10;;;2.88;;
13173;SDS011;6652;48.802;9.190;2023-04-03T01:25:50;6.68;;;3.10;;
13173;SDS011;6652;48.802;9.190;2023-04-03T01:28:19;6.88;;;3.15;;
13173;SDS011;6652;48.802;9.190;2023-04-03T01:30:48;4.55;;;2.80;;
13173;SDS011;6652;48.802;9.190;2023-04-03T01:33:20;4.80;;;3.15;;
13173;SDS011;6652;48.802;9.190;2023-04-03T01:38:21;6.38;;;3.35;;
13173;SDS011;6652;48.802;9.190;2023-04-03T01:40:48;5.32;;;3.17;;
13173;SDS011;6652;48.802;9.190;2023-04-03T01:43:15;4.28;;;2.72;;
13173;SDS011;6652;48.802;9.190;2023-04-03T01:45:41;7.82;;;3.25;;
13173;SDS011;6652;48.802;9.190;2023-04-03T01:48:08;4.88;;;2.70;;
13173;SDS011;6652;48.802;9.190;2023-04-03T01:50:36;4.25;;;2.78;;
13173;SDS011;6652;48.802;9.190;2023-04-03T01:53:03;7.47;;;3.42;;
13173;SDS011;6652;48.802;9.190;2023-04-03T01:55:30;6.43;;;3.30;;
13173;SDS011;6652;48.802;9.190;2023-04-03T01:57:57;5.57;;;2.50;;
13173;SDS011;6652;48.802;9.190;2023-04-03T02:00:24;9.07;;;3.22;;
13173;SDS011;6652;48.802;9.190;2023-04-03T02:02:51;4.82;;;3.17;;
13173;SDS011;6652;48.802;9.190;2023-04-03T02:05:18;6.55;;;3.00;;
13173;SDS011;6652;48.802;9.190;2023-04-03T02:07:46;10.85;;;3.03;;
13173;SDS011;6652;48.802;9.190;2023-04-03T02:10:13;4.82;;;2.70;;
13173;SDS011;6652;48.802;9.190;2023-04-03T02:12:40;5.68;;;2.92;;
13173;SDS011;6652;48.802;9.190;2023-04-03T02:15:07;5.63;;;2.67;;
13173;SDS011;6652;48.802;9.190;2023-04-03T02:17:35;5.80;;;3.20;;
13173;SDS011;6652;48.802;9.190;2023-04-03T02:20:02;5.88;;;2.50;;
13173;SDS011;6652;48.802;9.190;2023-04-03T02:22:29;6.13;;;3.05;;
13173;SDS011;6652;48.802;9.190;2023-04-03T02:24:58;5.20;;;2.90;;
13173;SDS011;6652;48.802;9.190;2023-04-03T02:27:25;5.32;;;2.53;;
13173;SDS011;6652;48.802;9.190;2023-04-03T02:29:52;5.70;;;3.10;;
13173;SDS011;6652;48.802;9.190;2023-04-03T02:32:19;3.60;;;2.45;;
13173;SDS011;6652;48.802;9.190;2023-04-03T02:34:46;5.03;;;3.00;;
13173;SDS011;6652;48.802;9.190;2023-04-03T02:37:12;6.32;;;2.97;;
13173;SDS011;6652;48.802;9.190;2023-04-03T02:39:39;4.88;;;2.67;;
13173;SDS011;6652;48.802;9.190;2023-04-03T02:42:07;4.75;;;2.92;;
13173;SDS011;6652;48.802;9.190;2023-04-03T02:44:34;4.35;;;2.90;;
13173;SDS011;6652;48.802;9.190;2023-04-03T02:47:01;8.85;;;2.97;;
13173;SDS011;6652;48.802;9.190;2023-04-03T02:49:28;6.35;;;2.50;;
13173;SDS011;6652;48.802;9.190;2023-04-03T02:51:55;3.97;;;2.63;;
13173;SDS011;6652;48.802;9.190;2023-04-03T02:54:22;6.53;;;2.92;;
13173;SDS011;6652;48.802;9.190;2023-04-03T02:56:52;6.30;;;3.05;;
13173;SDS011;6652;48.802;9.190;2023-04-03T02:59:21;3.78;;;2.83;;
13173;SDS011;6652;48.802;9.190;2023-04-03T03:01:48;4.80;;;3.05;;
13173;SDS011;6652;48.802;9.190;2023-04-03T03:04:15;3.60;;;2.67;;
13173;SDS011;6652;48.802;9.190;2023-04-03T03:06:42;4.78;;;2.63;;
13173;SDS011;6652;48.802;9.190;2023-04-03T03:09:08;7.95;;;3.53;;
13173;SDS011;6652;48.802;9.190;2023-04-03T03:11:35;4.18;;;2.45;;
13173;SDS011;6652;48.802;9.190;2023-04-03T03:14:02;4.85;;;2.95;;
13173;SDS011;6652;48.802;9.190;2023-04-03T03:16:30;7.90;;;2.75;;
13173;SDS011;6652;48.802;9.190;2023-04-03T03:18:57;5.38;;;2.63;;
13173;SDS011;6652;48.802;9.190;2023-04-03T03:21:24;4.60;;;2.85;;
13173;SDS011;6652;48.802;9.190;2023-04-03T03:23:51;4.22;;;2.88;;
13173;SDS011;6652;48.802;9.190;2023-04-03T03:26:18;4.18;;;2.65;;
13173;SDS011;6652;48.802;9.190;2023-04-03T03:28:45;6.72;;;2.60;;
13173;SDS011;6652;48.802;9.190;2023-04-03T03:31:12;5.50;;;2.80;;
13173;SDS011;6652;48.802;9.190;2023-04-03T03:33:41;6.40;;;2.88;;
13173;SDS011;6652;48.802;9.190;2023-04-03T03:36:08;5.90;;;3.10;;
13173;SDS011;6652;48.802;9.190;2023-04-03T03:38:35;8.10;;;3.20;;
13173;SDS011;6652;48.802;9.190;2023-04-03T03:41:02;5.40;;;2.95;;
13173;SDS011;6652;48.802;9.190;2023-04-03T03:43:29;5.35;;;2.83;;
13173;SDS011;6652;48.802;9.190;2023-04-03T03:45:55;3.60;;;2.78;;
13173;SDS011;6652;48.802;9.190;2023-04-03T03:48:22;3.28;;;2.60;;
13173;SDS011;6652;48.802;9.190;2023-04-03T03:50:51;4.25;;;3.05;;
13173;SDS011;6652;48.802;9.190;2023-04-03T03:53:17;8.10;;;2.70;;
13173;SDS011;6652;48.802;9.190;2023-04-03T03:55:45;4.50;;;2.45;;
13173;SDS011;6652;48.802;9.190;2023-04-03T03:58:11;4.72;;;2.63;;
13173;SDS011;6652;48.802;9.190;2023-04-03T04:00:38;5.60;;;2.60;;
13173;SDS011;6652;48.802;9.190;2023-04-03T04:03:05;6.13;;;2.92;;
13173;SDS011;6652;48.802;9.190;2023-04-03T04:05:32;8.82;;;2.97;;
13173;SDS011;6652;48.802;9.190;2023-04-03T04:08:01;4.15;;;2.53;;
13173;SDS011;6652;48.802;9.190;2023-04-03T04:10:28;6.82;;;3.05;;
13173;SDS011;6652;48.802;9.190;2023-04-03T04:12:54;10.45;;;2.70;;
13173;SDS011;6652;48.802;9.190;2023-04-03T04:15:21;5.32;;;2.53;;
13173;SDS011;6652;48.802;9.190;2023-04-03T04:17:50;5.35;;;2.75;;
13173;SDS011;6652;48.802;9.190;2023-04-03T04:20:17;5.88;;;2.95;;
13173;SDS011;6652;48.802;9.190;2023-04-03T04:22:44;5.85;;;2.95;;
13173;SDS011;6652;48.802;9.190;2023-04-03T04:25:12;5.78;;;2.58;;
13173;SDS011;6652;48.802;9.190;2023-04-03T04:27:39;8.73;;;2.38;;
13173;SDS011;6652;48.802;9.190;2023-04-03T04:30:07;4.18;;;2.50;;
13173;SDS011;6652;48.802;9.190;2023-04-03T04:32:36;7.28;;;3.25;;
13173;SDS011;6652;48.802;9.190;2023-04-03T04:35:03;3.78;;;2.40;;
13173;SDS011;6652;48.802;9.190;2023-04-03T04:37:30;5.88;;;2.40;;
13173;SDS011;6652;48.802;9.190;2023-04-03T04:39:57;6.47;;;2.60;;
13173;SDS011;6652;48.802;9.190;2023-04-03T04:42:25;3.60;;;2.28;;
13173;SDS011;6652;48.802;9.190;2023-04-03T04:44:52;5.00;;;2.75;;
13173;SDS011;6652;48.802;9.190;2023-04-03T04:47:19;3.65;;;2.05;;
13173;SDS011;6652;48.802;9.190;2023-04-03T04:49:47;4.35;;;2.45;;
13173;SDS011;6652;48.802;9.190;2023-04-03T04:52:14;10.05;;;2.80;;
13173;SDS011;6652;48.802;9.190;2023-04-03T04:54:41;4.85;;;2.38;;
13173;SDS011;6652;48.802;9.190;2023-04-03T04:57:08;6.07;;;2.60;;
13173;SDS011;6652;48.802;9.190;2023-04-03T04:59:37;7.60;;;2.20;;
13173;SDS011;6652;48.802;9.190;2023-04-03T05:02:04;4.45;;;2.55;;
13173;SDS011;6652;48.802;9.190;2023-04-03T05:04:31;5.00;;;3.03;;
13173;SDS011;6652;48.802;9.190;2023-04-03T05:06:58;5.35;;;2.58;;
13173;SDS011;6652;48.802;9.190;2023-04-03T05:09:25;4.07;;;2.22;;
13173;SDS011;6652;48.802;9.190;2023-04-03T05:11:52;3.60;;;2.25;;
13173;SDS011;6652;48.802;9.190;2023-04-03T05:14:19;3.90;;;2.13;;
13173;SDS011;6652;48.802;9.190;2023-04-03T05:16:47;3.35;;;2.15;;
13173;SDS011;6652;48.802;9.190;2023-04-03T05:19:17;7.15;;;2.63;;
13173;SDS011;6652;48.802;9.190;2023-04-03T05:21:44;4.35;;;2.08;;
13173;SDS011;6652;48.802;9.190;2023-04-03T05:24:11;3.88;;;2.20;;
13173;SDS011;6652;48.802;9.190;2023-04-03T05:26:38;4.03;;;2.53;;
13173;SDS011;6652;48.802;9.190;2023-04-03T05:29:05;5.20;;;2.65;;
13173;SDS011;6652;48.802;9.190;2023-04-03T05:31:32;4.78;;;2.40;;
13173;SDS011;6652;48.802;9.190;2023-04-03T05:34:00;4.15;;;2.20;;
13173;SDS011;6652;48.802;9.190;2023-04-03T05:36:28;7.60;;;2.17;;
13173;SDS011;6652;48.802;9.190;2023-04-03T05:38:55;4.18;;;2.28;;
13173;SDS011;6652;48.802;9.190;2023-04-03T05:41:22;2.53;;;2.03;;
13173;SDS011;6652;48.802;9.190;2023-04-03T05:43:49;3.83;;;2.10;;
13173;SDS011;6652;48.802;9.190;2023-04-03T05:46:17;4.28;;;2.55;;
13173;SDS011;6652;48.802;9.190;2023-04-03T05:48:45;5.32;;;2.33;;
13173;SDS011;6652;48.802;9.190;2023-04-03T05:51:15;5.03;;;2.50;;
13173;SDS011;6652;48.802;9.190;2023-04-03T05:53:43;8.95;;;2.10;;
13173;SDS011;6652;48.802;9.190;2023-04-03T05:56:12;4.40;;;2.50;;
13173;SDS011;6652;48.802;9.190;2023-04-03T05:58:40;3.92;;;2.20;;
13173;SDS011;6652;48.802;9.190;2023-04-03T06:01:06;3.08;;;1.92;;
13173;SDS011;6652;48.802;9.190;2023-04-03T06:03:34;7.20;;;2.65;;
13173;SDS011;6652;48.802;9.190;2023-04-03T06:06:02;6.35;;;2.13;;
13173;SDS011;6652;48.802;9.190;2023-04-03T06:08:31;5.80;;;2.58;;
13173;SDS011;6652;48.802;9.190;2023-04-03T06:10:58;5.55;;;2.33;;
13173;SDS011;6652;48.802;9.190;2023-04-03T06:13:27;3.40;;;2.40;;
13173;SDS011;6652;48.802;9.190;2023-04-03T06:15:54;5.43;;;2.25;;
13173;SDS011;6652;48.802;9.190;2023-04-03T06:18:21;4.30;;;2.25;;
13173;SDS011;6652;48.802;9.190;2023-04-03T06:20:48;8.68;;;2.58;;
13173;SDS011;6652;48.802;9.190;2023-04-03T06:23:15;5.75;;;2.22;;
13173;SDS011;6652;48.802;9.190;2023-04-03T06:25:43;5.03;;;2.35;;
13173;SDS011;6652;48.802;9.190;2023-04-03T06:28:11;6.70;;;2.28;;
13173;SDS011;6652;48.802;9.190;2023-04-03T06:30:38;7.45;;;2.47;;
13173;SDS011;6652;48.802;9.190;2023-04-03T06:33:04;6.63;;;2.63;;
13173;SDS011;6652;48.802;9.190;2023-04-03T06:35:31;6.82;;;2.72;;
13173;SDS011;6652;48.802;9.190;2023-04-03T06:37:59;8.18;;;3.20;;
13173;SDS011;6652;48.802;9.190;2023-04-03T06:40:26;8.80;;;2.60;;
13173;SDS011;6652;48.802;9.190;2023-04-03T06:42:55;6.70;;;2.17;;
13173;SDS011;6652;48.802;9.190;2023-04-03T06:45:21;4.60;;;2.72;;
13173;SDS011;6652;48.802;9.190;2023-04-03T06:47:50;5.90;;;2.50;;
13173;SDS011;6652;48.802;9.190;2023-04-03T06:50:17;5.13;;;2.38;;
13173;SDS011;6652;48.802;9.190;2023-04-03T06:52:44;13.13;;;3.00;;
13173;SDS011;6652;48.802;9.190;2023-04-03T06:55:11;6.32;;;2.75;;
13173;SDS011;6652;48.802;9.190;2023-04-03T06:57:38;6.80;;;2.67;;
13173;SDS011;6652;48.802;9.190;2023-04-03T07:00:07;7.03;;;2.35;;
13173;SDS011;6652;48.802;9.190;2023-04-03T07:02:35;7.03;;;2.80;;
13173;SDS011;6652;48.802;9.190;2023-04-03T07:05:02;8.68;;;2.50;;
13173;SDS011;6652;48.802;9.190;2023-04-03T07:07:31;7.43;;;2.25;;
13173;SDS011;6652;48.802;9.190;2023-04-03T07:09:59;6.20;;;3.35;;
13173;SDS011;6652;48.802;9.190;2023-04-03T07:12:28;6.68;;;2.30;;
13173;SDS011;6652;48.802;9.190;2023-04-03T07:14:55;4.35;;;2.13;;
13173;SDS011;6652;48.802;9.190;2023-04-03T07:17:23;8.57;;;2.42;;
13173;SDS011;6652;48.802;9.190;2023-04-03T07:19:50;5.88;;;2.92;;
13173;SDS011;6652;48.802;9.190;2023-04-03T07:22:17;5.10;;;2.50;;
13173;SDS011;6652;48.802;9.190;2023-04-03T07:24:44;4.72;;;2.25;;
13173;SDS011;6652;48.802;9.190;2023-04-03T07:27:12;7.43;;;2.63;;
13173;SDS011;6652;48.802;9.190;2023-04-03T07:29:38;5.30;;;2.25;;
13173;SDS011;6652;48.802;9.190;2023-04-03T07:32:06;7.45;;;2.53;;
13173;SDS011;6652;48.802;9.190;2023-04-03T07:34:34;4.57;;;2.65;;
13173;SDS011;6652;48.802;9.190;2023-04-03T07:37:01;11.98;;;3.17;;
13173;SDS011;6652;48.802;9.190;2023-04-03T07:39:29;4.38;;;2.10;;
13173;SDS011;6652;48.802;9.190;2023-04-03T07:41:56;6.80;;;2.40;;
13173;SDS011;6652;48.802;9.190;2023-04-03T07:44:23;7.45;;;2.80;;
13173;SDS011;6652;48.802;9.190;2023-04-03T07:46:51;8.32;;;2.65;;
13173;SDS011;6652;48.802;9.190;2023-04-03T07:49:18;6.43;;;2.97;;
13173;SDS011;6652;48.802;9.190;2023-04-03T07:51:46;5.40;;;2.60;;
13173;SDS011;6652;48.802;9.190;2023-04-03T07:54:13;8.15;;;2.55;;
13173;SDS011;6652;48.802;9.190;2023-04-03T07:56:40;6.82;;;2.42;;
13173;SDS011;6652;48.802;9.190;2023-04-03T07:59:08;7.15;;;2.38;;
13173;SDS011;6652;48.802;9.190;2023-04-03T08:01:35;8.95;;;2.40;;
13173;SDS011;6652;48.802;9.190;2023-04-03T08:04:02;5.75;;;2.30;;
13173;SDS011;6652;48.802;9.190;2023-04-03T08:06:30;6.47;;;2.60;;
13173;SDS011;6652;48.802;9.190;2023-04-03T08:09:00;7.05;;;2.10;;
13173;SDS011;6652;48.802;9.190;2023-04-03T08:11:27;4.45;;;2.65;;
13173;SDS011;6652;48.802;9.190;2023-04-03T08:13:54;8.45;;;2.40;;
13173;SDS011;6652;48.802;9.190;2023-04-03T08:16:22;5.03;;;2.30;;
13173;SDS011;6652;48.802;9.190;2023-04-03T08:18:50;5.22;;;2.17;;
13173;SDS011;6652;48.802;9.190;2023-04-03T08:21:17;7.28;;;2.35;;
13173;SDS011;6652;48.802;9.190;2023-04-03T08:23:44;6.60;;;2.80;;
13173;SDS011;6652;48.802;9.190;2023-04-03T08:26:18;6.55;;;2.00;;
13173;SDS011;6652;48.802;9.190;2023-04-03T08:28:45;7.22;;;2.17;;
13173;SDS011;6652;48.802;9.190;2023-04-03T08:31:14;4.15;;;2.10;;
13173;SDS011;6652;48.802;9.190;2023-04-03T08:33:43;8.52;;;3.00;;
13173;SDS011;6652;48.802;9.190;2023-04-03T08:36:18;7.55;;;2.33;;
13173;SDS011;6652;48.802;9.190;2023-04-03T08:38:46;7.18;;;3.10;;
13173;SDS011;6652;48.802;9.190;2023-04-03T08:41:16;7.60;;;2.60;;
13173;SDS011;6652;48.802;9.190;2023-04-03T08:44:01;7.22;;;2.53;;
13173;SDS011;6652;48.802;9.190;2023-04-03T08:46:47;6.93;;;2.67;;
13173;SDS011;6652;48.802;9.190;2023-04-03T08:49:28;4.95;;;2.17;;
13173;SDS011;6652;48.802;9.190;2023-04-03T08:51:59;6.00;;;2.40;;
13173;SDS011;6652;48.802;9.190;2023-04-03T08:54:31;7.45;;;2.45;;
13173;SDS011;6652;48.802;9.190;2023-04-03T08:57:02;5.60;;;2.35;;
13173;SDS011;6652;48.802;9.190;2023-04-03T08:59:32;4.78;;;2.50;;
13173;SDS011;6652;48.802;9.190;2023-04-03T09:02:01;5.43;;;2.50;;
13173;SDS011;6652;48.802;9.190;2023-04-03T09:04:32;6.05;;;2.30;;
13173;SDS011;6652;48.802;9.190;2023-04-03T09:07:02;9.80;;;2.70;;
13173;SDS011;6652;48.802;9.190;2023-04-03T09:09:35;9.73;;;3.00;;
13173;SDS011;6652;48.802;9.190;2023-04-03T09:12:10;9.90;;;2.55;;
13173;SDS011;6652;48.802;9.190;2023-04-03T09:14:43;5.43;;;2.13;;
13173;SDS011;6652;48.802;9.190;2023-04-03T09:17:20;3.92;;;2.00;;
13173;SDS011;6652;48.802;9.190;2023-04-03T09:19:54;9.52;;;2.20;;
13173;SDS011;6652;48.802;9.190;2023-04-03T09:22:28;8.93;;;2.30;;
13173;SDS011;6652;48.802;9.190;2023-04-03T09:25:00;9.90;;;2.30;;
13173;SDS011;6652;48.802;9.190;2023-04-03T09:27:34;7.78;;;2.33;;
13173;SDS011;6652;48.802;9.190;2023-04-03T09:30:01;6.90;;;2.50;;
13173;SDS011;6652;48.802;9.190;2023-04-03T09:32:30;5.72;;;2.05;;
13173;SDS011;6652;48.802;9.190;2023-04-03T09:34:59;14.10;;;2.28;;
13173;SDS011;6652;48.802;9.190;2023-04-03T09:37:39;4.03;;;2.22;;
13173;SDS011;6652;48.802;9.190;2023-04-03T09:43:01;8.48;;;2.35;;
13173;SDS011;6652;48.802;9.190;2023-04-03T09:45:43;6.10;;;2.08;;
13173;SDS011;6652;48.802;9.190;2023-04-03T09:48:15;5.05;;;1.98;;
13173;SDS011;6652;48.802;9.190;2023-04-03T09:50:52;11.63;;;2.17;;
13173;SDS011;6652;48.802;9.190;2023-04-03T09:53:28;8.27;;;2.00;;
13173;SDS011;6652;48.802;9.190;2023-04-03T09:55:57;6.15;;;2.08;;
13173;SDS011;6652;48.802;9.190;2023-04-03T09:58:27;5.30;;;2.10;;
13173;SDS011;6652;48.802;9.190;2023-04-03T10:00:56;6.82;;;2.00;;
13173;SDS011;6652;48.802;9.190;2023-04-03T10:03:26;8.30;;;2.45;;
13173;SDS011;6652;48.802;9.190;2023-04-03T10:05:56;5.03;;;1.85;;
13173;SDS011;6652;48.802;9.190;2023-04-03T10:08:25;8.30;;;2.22;;
13173;SDS011;6652;48.802;9.190;2023-04-03T10:13:51;8.90;;;2.35;;
13173;SDS011;6652;48.802;9.190;2023-04-03T10:18:56;4.28;;;1.92;;
13173;SDS011;6652;48.802;9.190;2023-04-03T10:21:46;7.55;;;1.83;;
13173;SDS011;6652;48.802;9.190;2023-04-03T10:24:18;5.57;;;1.83;;
13173;SDS011;6652;48.802;9.190;2023-04-03T10:29:24;4.55;;;1.70;;
13173;SDS011;6652;48.802;9.190;2023-04-03T10:32:02;24.75;;;2.13;;
13173;SDS011;6652;48.802;9.190;2023-04-03T10:34:50;3.05;;;1.73;;
13173;SDS011;6652;48.802;9.190;2023-04-03T10:37:24;7.60;;;2.50;;
13173;SDS011;6652;48.802;9.190;2023-04-03T10:39:57;7.53;;;2.05;;
13173;SDS011;6652;48.802;9.190;2023-04-03T10:42:28;4.15;;;2.22;;
13173;SDS011;6652;48.802;9.190;2023-04-03T10:45:07;5.65;;;1.83;;
13173;SDS011;6652;48.802;9.190;2023-04-03T10:47:46;6.10;;;1.70;;
13173;SDS011;6652;48.802;9.190;2023-04-03T10:50:27;4.25;;;1.90;;
13173;SDS011;6652;48.802;9.190;2023-04-03T10:53:03;3.67;;;1.63;;
13173;SDS011;6652;48.802;9.190;2023-04-03T10:55:35;4.57;;;1.95;;
13173;SDS011;6652;48.802;9.190;2023-04-03T10:58:05;4.10;;;1.60;;
13173;SDS011;6652;48.802;9.190;2023-04-03T11:00:39;4.40;;;1.77;;
13173;SDS011;6652;48.802;9.190;2023-04-03T11:03:10;5.93;;;1.90;;
13173;SDS011;6652;48.802;9.190;2023-04-03T11:05:41;6.78;;;2.03;;
13173;SDS011;6652;48.802;9.190;2023-04-03T11:08:11;6.30;;;1.85;;
13173;SDS011;6652;48.802;9.190;2023-04-03T11:10:50;5.88;;;1.88;;
13173;SDS011;6652;48.802;9.190;2023-04-03T11:13:20;5.85;;;1.60;;
13173;SDS011;6652;48.802;9.190;2023-04-03T11:15:52;5.55;;;1.48;;
13173;SDS011;6652;48.802;9.190;2023-04-03T11:18:21;6.75;;;1.13;;
13173;SDS011;6652;48.802;9.190;2023-04-03T11:20:56;5.78;;;1.65;;
13173;SDS011;6652;48.802;9.190;2023-04-03T11:23:28;9.60;;;1.60;;
13173;SDS011;6652;48.802;9.190;2023-04-03T11:25:59;2.10;;;1.33;;
13173;SDS011;6652;48.802;9.190;2023-04-03T11:28:35;5.43;;;1.60;;
13173;SDS011;6652;48.802;9.190;2023-04-03T11:31:07;4.45;;;1.80;;
13173;SDS011;6652;48.802;9.190;2023-04-03T11:33:47;5.30;;;1.60;;
13173;SDS011;6652;48.802;9.190;2023-04-03T11:36:32;2.67;;;1.30;;
13173;SDS011;6652;48.802;9.190;2023-04-03T11:39:07;4.18;;;1.55;;
13173;SDS011;6652;48.802;9.190;2023-04-03T11:41:43;6.43;;;1.67;;
13173;SDS011;6652;48.802;9.190;2023-04-03T11:44:25;6.57;;;1.65;;
13173;SDS011;6652;48.802;9.190;2023-04-03T11:47:02;5.75;;;1.63;;
13173;SDS011;6652;48.802;9.190;2023-04-03T11:55:41;8.73;;;2.00;;
13173;SDS011;6652;48.802;9.190;2023-04-03T11:58:13;3.60;;;1.60;;
13173;SDS011;6652;48.802;9.190;2023-04-03T12:00:55;4.15;;;1.52;;
13173;SDS011;6652;48.802;9.190;2023-04-03T12:03:55;6.38;;;1.80;;
13173;SDS011;6652;48.802;9.190;2023-04-03T12:09:28;3.65;;;1.63;;
13173;SDS011;6652;48.802;9.190;2023-04-03T12:12:00;4.65;;;1.83;;
13173;SDS011;6652;48.802;9.190;2023-04-03T12:14:46;5.03;;;1.77;;
13173;SDS011;6652;48.802;9.190;2023-04-03T12:17:18;5.10;;;1.65;;
13173;SDS011;6652;48.802;9.190;2023-04-03T12:19:50;5.78;;;1.60;;
13173;SDS011;6652;48.802;9.190;2023-04-03T12:22:18;5.55;;;1.83;;
13173;SDS011;6652;48.802;9.190;2023-04-03T12:24:47;5.32;;;1.92;;
13173;SDS011;6652;48.802;9.190;2023-04-03T12:27:25;5.85;;;1.75;;
13173;SDS011;6652;48.802;9.190;2023-04-03T12:30:12;4.47;;;1.50;;
13173;SDS011;6652;48.802;9.190;2023-04-03T12:35:49;4.30;;;1.70;;
13173;SDS011;6652;48.802;9.190;2023-04-03T12:38:37;3.85;;;1.67;;
13173;SDS011;6652;48.802;9.190;2023-04-03T12:41:18;4.45;;;1.50;;
13173;SDS011;6652;48.802;9.190;2023-04-03T12:43:54;2.42;;;1.40;;
13173;SDS011;6652;48.802;9.190;2023-04-03T12:46:34;3.03;;;1.55;;
13173;SDS011;6652;48.802;9.190;2023-04-03T12:49:05;2.63;;;1.45;;
13173;SDS011;6652;48.802;9.190;2023-04-03T12:51:45;6.32;;;1.77;;
13173;SDS011;6652;48.802;9.190;2023-04-03T12:54:14;4.25;;;1.60;;
13173;SDS011;6652;48.802;9.190;2023-04-03T12:56:45;3.47;;;1.70;;
13173;SDS011;6652;48.802;9.190;2023-04-03T12:59:13;8.98;;;1.70;;
13173;SDS011;6652;48.802;9.190;2023-04-03T13:01:41;3.22;;;1.38;;
13173;SDS011;6652;48.802;9.190;2023-04-03T13:04:09;5.53;;;1.80;;
13173;SDS011;6652;48.802;9.190;2023-04-03T13:06:38;5.53;;;1.45;;
13173;SDS011;6652;48.802;9.190;2023-04-03T13:09:16;3.45;;;1.48;;
13173;SDS011;6652;48.802;9.190;2023-04-03T13:11:46;9.65;;;1.80;;
13173;SDS011;6652;48.802;9.190;2023-04-03T13:14:17;5.65;;;1.80;;
13173;SDS011;6652;48.802;9.190;2023-04-03T13:16:52;4.85;;;1.67;;
13173;SDS011;6652;48.802;9.190;2023-04-03T13:19:20;3.88;;;1.42;;
13173;SDS011;6652;48.802;9.190;2023-04-03T13:21:48;7.30;;;1.90;;
13173;SDS011;6652;48.802;9.190;2023-04-03T13:24:21;2.90;;;1.40;;
13173;SDS011;6652;48.802;9.190;2023-04-03T13:26:48;7.43;;;2.25;;
13173;SDS011;6652;48.802;9.190;2023-04-03T13:29:19;5.00;;;1.95;;
13173;SDS011;6652;48.802;9.190;2023-04-03T13:31:51;9.07;;;1.95;;
13173;SDS011;6652;48.802;9.190;2023-04-03T13:34:19;4.63;;;1.80;;
13173;SDS011;6652;48.802;9.190;2023-04-03T13:36:55;5.20;;;2.25;;
13173;SDS011;6652;48.802;9.190;2023-04-03T13:39:26;4.15;;;1.90;;
13173;SDS011;6652;48.802;9.190;2023-04-03T13:41:55;4.80;;;1.80;;
13173;SDS011;6652;48.802;9.190;2023-04-03T13:44:27;5.15;;;1.85;;
13173;SDS011;6652;48.802;9.190;2023-04-03T13:46:57;2.85;;;1.42;;
13173;SDS011;6652;48.802;9.190;2023-04-03T13:49:28;1.73;;;1.25;;
13173;SDS011;6652;48.802;9.190;2023-04-03T13:51:58;2.40;;;1.48;;
13173;SDS011;6652;48.802;9.190;2023-04-03T13:54:29;5.68;;;1.85;;
13173;SDS011;6652;48.802;9.190;2023-04-03T13:56:59;9.25;;;1.80;;
13173;SDS011;6652;48.802;9.190;2023-04-03T13:59:27;3.10;;;1.60;;
13173;SDS011;6652;48.802;9.190;2023-04-03T14:02:05;7.07;;;1.98;;
13173;SDS011;6652;48.802;9.190;2023-04-03T14:04:44;4.78;;;1.73;;
13173;SDS011;6652;48.802;9.190;2023-04-03T14:07:14;3.42;;;1.75;;
13173;SDS011;6652;48.802;9.190;2023-04-03T14:09:44;3.70;;;1.63;;
13173;SDS011;6652;48.802;9.190;2023-04-03T14:12:12;4.45;;;1.65;;
13173;SDS011;6652;48.802;9.190;2023-04-03T14:14:42;2.70;;;1.55;;
13173;SDS011;6652;48.802;9.190;2023-04-03T14:17:10;6.88;;;2.13;;
13173;SDS011;6652;48.802;9.190;2023-04-03T14:19:41;6.18;;;1.80;;
13173;SDS011;6652;48.802;9.190;2023-04-03T14:22:11;6.13;;;1.95;;
13173;SDS011;6652;48.802;9.190;2023-04-03T14:24:41;5.07;;;1.85;;
13173;SDS011;6652;48.802;9.190;2023-04-03T14:27:13;4.38;;;2.20;;
13173;SDS011;6652;48.802;9.190;2023-04-03T14:29:43;5.90;;;2.05;;
13173;SDS011;6652;48.802;9.190;2023-04-03T14:32:10;4.55;;;1.75;;
13173;SDS011;6652;48.802;9.190;2023-04-03T14:34:38;6.90;;;2.00;;
13173;SDS011;6652;48.802;9.190;2023-04-03T14:37:05;17.15;;;3.90;;
13173;SDS011;6652;48.802;9.190;2023-04-03T14:39:35;8.20;;;1.70;;
13173;SDS011;6652;48.802;9.190;2023-04-03T14:42:02;3.28;;;1.40;;
13173;SDS011;6652;48.802;9.190;2023-04-03T14:44:30;3.90;;;1.70;;
13173;SDS011;6652;48.802;9.190;2023-04-03T14:46:57;7.22;;;1.80;;
13173;SDS011;6652;48.802;9.190;2023-04-03T14:49:24;2.50;;;1.73;;
13173;SDS011;6652;48.802;9.190;2023-04-03T14:51:54;3.92;;;1.85;;
13173;SDS011;6652;48.802;9.190;2023-04-03T14:54:21;3.50;;;1.70;;
13173;SDS011;6652;48.802;9.190;2023-04-03T14:56:52;10.05;;;2.00;;
13173;SDS011;6652;48.802;9.190;2023-04-03T14:59:20;3.83;;;1.60;;
13173;SDS011;6652;48.802;9.190;2023-04-03T15:01:49;3.65;;;1.80;;
13173;SDS011;6652;48.802;9.190;2023-04-03T15:04:16;4.28;;;1.80;;
13173;SDS011;6652;48.802;9.190;2023-04-03T15:06:44;3.15;;;1.60;;
13173;SDS011;6652;48.802;9.190;2023-04-03T15:09:15;5.15;;;1.65;;
13173;SDS011;6652;48.802;9.190;2023-04-03T15:11:47;4.65;;;1.60;;
13173;SDS011;6652;48.802;9.190;2023-04-03T15:14:14;7.85;;;1.65;;
13173;SDS011;6652;48.802;9.190;2023-04-03T15:16:41;2.72;;;1.50;;
13173;SDS011;6652;48.802;9.190;2023-04-03T15:19:10;6.95;;;1.63;;
13173;SDS011;6652;48.802;9.190;2023-04-03T15:21:37;3.45;;;1.67;;
13173;SDS011;6652;48.802;9.190;2023-04-03T15:24:05;4.22;;;2.03;;
13173;SDS011;6652;48.802;9.190;2023-04-03T15:26:32;4.85;;;1.50;;
13173;SDS011;6652;48.802;9.190;2023-04-03T15:28:59;6.15;;;1.80;;
13173;SDS011;6652;48.802;9.190;2023-04-03T15:31:27;5.45;;;1.85;;
13173;SDS011;6652;48.802;9.190;2023-04-03T15:33:54;4.50;;;1.90;;
13173;SDS011;6652;48.802;9.190;2023-04-03T15:36:22;3.22;;;1.58;;
13173;SDS011;6652;48.802;9.190;2023-04-03T15:38:49;3.10;;;1.50;;
13173;SDS011;6652;48.802;9.190;2023-04-03T15:41:16;2.60;;;1.38;;
13173;SDS011;6652;48.802;9.190;2023-04-03T15:43:43;4.40;;;1.70;;